createdAt,value
2022-08-22T00:00:38.936Z,76.63
2022-08-22T00:03:15.349Z,76.07
2022-08-22T00:03:26.870Z,76.98
2022-08-22T00:06:17.298Z,77.03
2022-08-22T00:09:04.907Z,77.19
2022-08-22T00:11:48.641Z,77.17
2022-08-22T00:14:30.143Z,77.36
2022-08-22T00:17:07.339Z,77.40
2022-08-22T00:19:50.982Z,77.50
2022-08-22T00:22:27.358Z,77.53
2022-08-22T00:25:08.227Z,77.72
2022-08-22T00:28:01.657Z,77.80
2022-08-22T00:30:39.105Z,77.94
2022-08-22T00:33:19.386Z,78.08
2022-08-22T00:35:55.078Z,78.06
2022-08-22T00:38:32.040Z,78.33
2022-08-22T00:41:10.452Z,78.44
2022-08-22T00:44:24.190Z,78.43
2022-08-22T00:47:21.453Z,78.62
2022-08-22T00:50:22.912Z,78.67
2022-08-22T00:53:16.202Z,78.60
2022-08-22T00:56:11.324Z,78.72
2022-08-22T00:58:59.857Z,78.85
2022-08-22T01:01:56.947Z,78.95
2022-08-22T01:04:44.685Z,78.99
2022-08-22T01:07:38.205Z,79.10
2022-08-22T01:10:25.894Z,79.20
2022-08-22T01:13:12.962Z,79.27
2022-08-22T01:15:46.073Z,79.38
2022-08-22T01:18:36.036Z,79.45
2022-08-22T01:21:40.537Z,79.48
2022-08-22T01:25:06.916Z,79.48
2022-08-22T01:28:06.855Z,79.64
2022-08-22T01:31:06.816Z,79.51
2022-08-22T01:34:14.643Z,79.63
2022-08-22T01:37:17.942Z,79.92
2022-08-22T01:40:25.734Z,80.04
2022-08-22T01:43:10.918Z,80.07
2022-08-22T01:46:08.620Z,80.12
2022-08-22T01:48:47.723Z,80.09
2022-08-22T01:51:24.723Z,80.14
2022-08-22T01:53:59.583Z,80.26
2022-08-22T01:56:37.191Z,80.27
2022-08-22T01:59:11.595Z,80.40
2022-08-22T02:01:59.379Z,80.40
2022-08-22T02:04:38.807Z,80.57
2022-08-22T02:07:17.898Z,80.71
2022-08-22T02:10:02.295Z,80.74
2022-08-22T02:12:46.257Z,81.07
2022-08-22T02:15:24.007Z,81.19
2022-08-22T02:18:04.770Z,81.18
2022-08-22T02:20:42.093Z,81.16
2022-08-22T02:23:31.099Z,81.39
2022-08-22T02:26:08.597Z,81.31
2022-08-22T02:28:57.285Z,81.16
2022-08-22T02:31:40.010Z,81.23
2022-08-22T02:34:39.484Z,81.22
2022-08-22T02:37:16.952Z,81.24
2022-08-22T02:39:54.760Z,81.25
2022-08-22T02:42:34.763Z,81.16
2022-08-22T02:45:20.057Z,81.24
2022-08-22T02:47:58.076Z,81.19
2022-08-22T02:50:38.830Z,81.25
2022-08-22T02:53:14.898Z,81.31
2022-08-22T02:55:57.516Z,81.32
2022-08-22T02:58:38.040Z,81.25
2022-08-22T03:01:25.471Z,81.21
2022-08-22T03:04:22.657Z,81.19
2022-08-22T03:07:09.254Z,81.40
2022-08-22T03:09:45.913Z,81.35
2022-08-22T03:12:23.887Z,81.55
2022-08-22T03:15:03.373Z,81.53
2022-08-22T03:17:40.458Z,81.31
2022-08-22T03:20:15.812Z,81.38
2022-08-22T03:22:53.129Z,81.37
2022-08-22T03:25:34.865Z,81.23
2022-08-22T03:28:11.397Z,80.71
2022-08-22T03:30:46.783Z,80.67
2022-08-22T03:33:21.696Z,80.69
2022-08-22T03:36:03.953Z,80.61
2022-08-22T03:38:50.112Z,80.95
2022-08-22T03:41:45.868Z,81.07
2022-08-22T03:44:24.657Z,81.12
2022-08-22T03:47:20.893Z,81.17
2022-08-22T03:50:24.462Z,81.12
2022-08-22T03:53:23.482Z,81.04
2022-08-22T03:56:25.242Z,81.08
2022-08-22T03:59:12.236Z,81.28
2022-08-22T04:02:24.642Z,81.18
2022-08-22T04:05:26.666Z,81.21
2022-08-22T04:08:11.234Z,81.33
2022-08-22T04:11:11.543Z,81.35
2022-08-22T04:14:10.084Z,81.27
2022-08-22T04:17:10.024Z,81.13
2022-08-22T04:20:02.434Z,81.16
2022-08-22T04:23:09.727Z,81.00
2022-08-22T04:25:43.482Z,80.95
2022-08-22T04:28:19.988Z,81.02
2022-08-22T04:30:58.881Z,80.85
2022-08-22T04:33:35.860Z,81.01
2022-08-22T04:36:08.775Z,81.08
2022-08-22T04:38:47.715Z,81.08
2022-08-22T04:41:26.842Z,81.11
2022-08-22T04:44:04.543Z,80.99
2022-08-22T04:46:42.828Z,81.12
2022-08-22T04:49:22.276Z,81.02
2022-08-22T04:51:58.724Z,80.84
2022-08-22T04:54:53.053Z,80.92
2022-08-22T04:57:35.198Z,81.06
2022-08-22T05:00:10.495Z,81.13
2022-08-22T05:02:49.242Z,81.13
2022-08-22T05:05:25.685Z,81.13
2022-08-22T05:08:00.826Z,80.98
2022-08-22T05:10:38.999Z,81.35
2022-08-22T05:13:16.570Z,81.53
2022-08-22T05:15:53.595Z,81.42
2022-08-22T05:18:29.558Z,81.07
2022-08-22T05:21:07.429Z,81.38
2022-08-22T05:23:43.121Z,81.33
2022-08-22T05:26:17.134Z,81.08
2022-08-22T05:28:53.403Z,81.01
2022-08-22T05:31:30.585Z,81.21
2022-08-22T05:34:06.904Z,81.28
2022-08-22T05:36:42.744Z,81.20
2022-08-22T05:39:19.127Z,81.27
2022-08-22T05:41:51.996Z,81.09
2022-08-22T05:44:26.010Z,81.03
2022-08-22T05:47:04.056Z,81.02
2022-08-22T05:49:40.797Z,81.02
2022-08-22T05:52:18.164Z,81.04
2022-08-22T05:54:55.996Z,80.78
2022-08-22T05:57:31.892Z,80.78
2022-08-22T06:00:09.138Z,80.97
2022-08-22T06:02:55.472Z,80.87
2022-08-22T06:05:30.091Z,81.13
2022-08-22T06:08:05.981Z,80.88
2022-08-22T06:10:43.458Z,80.70
2022-08-22T06:13:32.499Z,80.84
2022-08-22T06:16:16.934Z,81.05
2022-08-22T06:18:50.680Z,81.06
2022-08-22T06:21:27.480Z,81.04
2022-08-22T06:24:01.657Z,81.05
2022-08-22T06:26:38.081Z,80.96
2022-08-22T06:29:11.085Z,80.71
2022-08-22T06:31:47.680Z,80.21
2022-08-22T06:34:24.361Z,80.30
2022-08-22T06:36:55.906Z,80.28
2022-08-22T06:39:31.199Z,80.49
2022-08-22T06:42:11.225Z,80.48
2022-08-22T06:44:46.098Z,80.61
2022-08-22T06:47:21.078Z,80.87
2022-08-22T06:49:57.116Z,80.91
2022-08-22T06:52:32.352Z,80.79
2022-08-22T06:55:07.858Z,80.45
2022-08-22T06:57:43.709Z,80.14
2022-08-22T07:00:18.262Z,79.93
2022-08-22T07:02:56.093Z,80.22
2022-08-22T07:05:29.498Z,80.30
2022-08-22T07:08:06.228Z,80.65
2022-08-22T07:10:37.111Z,80.72
2022-08-22T07:13:14.090Z,80.63
2022-08-22T07:15:53.704Z,80.59
2022-08-22T07:18:31.885Z,80.56
2022-08-22T07:21:08.424Z,80.71
2022-08-22T07:23:46.224Z,80.83
2022-08-22T07:26:28.334Z,80.84
2022-08-22T07:29:09.006Z,80.51
2022-08-22T07:31:49.618Z,80.70
2022-08-22T07:34:35.877Z,80.54
2022-08-22T07:37:15.736Z,80.43
2022-08-22T07:39:54.615Z,80.13
2022-08-22T07:42:34.287Z,80.02
2022-08-22T07:45:11.667Z,80.46
2022-08-22T07:47:57.318Z,80.03
2022-08-22T07:50:31.657Z,80.65
2022-08-22T07:53:09.660Z,80.42
2022-08-22T07:55:49.469Z,80.44
2022-08-22T07:58:23.182Z,80.35
2022-08-22T08:00:55.336Z,79.65
2022-08-22T08:03:30.288Z,78.98
2022-08-22T08:06:03.426Z,78.85
2022-08-22T08:08:41.180Z,78.71
2022-08-22T08:11:16.034Z,78.21
2022-08-22T08:13:54.321Z,78.54
2022-08-22T08:16:29.087Z,78.52
2022-08-22T08:19:03.025Z,77.72
2022-08-22T08:21:38.672Z,77.84
2022-08-22T08:24:14.540Z,77.71
2022-08-22T08:27:05.148Z,77.71
2022-08-22T08:29:37.480Z,77.41
2022-08-22T08:32:11.586Z,77.48
2022-08-22T08:34:44.534Z,77.82
2022-08-22T08:37:21.721Z,77.89
2022-08-22T08:39:56.906Z,77.16
2022-08-22T08:43:09.018Z,76.77
2022-08-22T08:45:59.145Z,76.05
2022-08-22T08:48:54.804Z,76.04
2022-08-22T08:51:50.379Z,75.97
2022-08-22T08:54:33.210Z,76.74
2022-08-22T08:57:12.034Z,76.88
2022-08-22T08:59:54.112Z,76.70
2022-08-22T09:02:42.564Z,76.80
2022-08-22T09:05:41.789Z,76.58
2022-08-22T09:08:46.752Z,76.70
2022-08-22T09:11:57.576Z,76.72
2022-08-22T09:14:48.543Z,76.45
2022-08-22T09:17:41.127Z,76.59
2022-08-22T09:20:31.399Z,76.56
2022-08-22T09:23:37.218Z,76.60
2022-08-22T09:26:17.020Z,76.98
2022-08-22T09:28:57.006Z,76.27
2022-08-22T09:31:48.217Z,76.33
2022-08-22T09:34:30.075Z,75.87
2022-08-22T09:37:16.323Z,75.57
2022-08-22T09:39:58.400Z,75.71
2022-08-22T09:42:35.482Z,76.10
2022-08-22T09:45:36.236Z,76.27
2022-08-22T09:48:16.921Z,75.62
2022-08-22T09:51:01.620Z,75.60
2022-08-22T09:53:53.066Z,76.17
2022-08-22T09:56:32.080Z,76.20
2022-08-22T09:59:09.899Z,74.95
2022-08-22T10:01:48.468Z,74.60
2022-08-22T10:04:49.909Z,74.85
2022-08-22T10:07:40.515Z,74.67
2022-08-22T10:10:26.230Z,74.61
2022-08-22T10:13:10.235Z,74.71
2022-08-22T10:15:47.857Z,74.73
2022-08-22T10:18:44.063Z,74.69
2022-08-22T10:21:35.640Z,74.89
2022-08-22T10:24:25.743Z,74.75
2022-08-22T10:27:03.378Z,74.84
2022-08-22T10:30:04.136Z,75.24
2022-08-22T10:32:42.872Z,75.32
2022-08-22T10:35:34.003Z,75.25
2022-08-22T10:38:14.396Z,75.58
2022-08-22T10:40:54.594Z,75.87
2022-08-22T10:43:36.421Z,75.93
2022-08-22T10:46:13.845Z,75.52
2022-08-22T10:48:53.390Z,75.75
2022-08-22T10:51:37.398Z,76.07
2022-08-22T10:54:44.160Z,75.96
2022-08-22T10:57:48.328Z,75.99
2022-08-22T11:00:46.384Z,75.68
2022-08-22T11:03:28.015Z,75.52
2022-08-22T11:06:03.019Z,75.03
2022-08-22T11:08:56.441Z,74.65
2022-08-22T11:11:41.179Z,74.50
2022-08-22T11:14:37.631Z,74.85
2022-08-22T11:17:31.086Z,75.23
2022-08-22T11:20:19.863Z,75.40
2022-08-22T11:23:12.473Z,75.22
2022-08-22T11:25:55.230Z,75.13
2022-08-22T11:28:44.842Z,75.41
2022-08-22T11:31:24.530Z,74.68
2022-08-22T11:34:00.987Z,73.84
2022-08-22T11:36:40.435Z,73.51
2022-08-22T11:39:25.957Z,73.54
2022-08-22T11:42:08.047Z,73.77
2022-08-22T11:44:50.751Z,72.75
2022-08-22T11:47:28.160Z,73.44
2022-08-22T11:50:11.481Z,73.64
2022-08-22T11:53:09.694Z,72.67
2022-08-22T11:55:48.072Z,72.78
2022-08-22T11:58:37.998Z,71.12
2022-08-22T12:01:18.569Z,70.40
2022-08-22T12:04:10.165Z,69.94
2022-08-22T12:07:02.091Z,69.58
2022-08-22T12:09:42.694Z,69.30
2022-08-22T12:12:34.950Z,69.90
2022-08-22T12:15:17.213Z,69.06
2022-08-22T12:18:23.873Z,69.38
2022-08-22T12:21:12.179Z,69.04
2022-08-22T12:24:06.432Z,69.35
2022-08-22T12:26:53.790Z,69.29
2022-08-22T12:29:44.948Z,68.55
2022-08-22T12:32:49.164Z,68.37
2022-08-22T12:35:41.879Z,68.06
2022-08-22T12:38:32.795Z,68.35
2022-08-22T12:41:28.380Z,68.70
2022-08-22T12:44:20.237Z,68.76
2022-08-22T12:47:09.269Z,68.76
2022-08-22T12:49:58.408Z,68.89
2022-08-22T12:52:47.910Z,69.28
2022-08-22T12:55:37.290Z,68.94
2022-08-22T12:58:18.869Z,69.10
2022-08-22T13:00:52.604Z,68.71
2022-08-22T13:03:29.693Z,68.88
2022-08-22T13:06:05.031Z,68.52
2022-08-22T13:08:44.585Z,68.00
2022-08-22T13:11:22.677Z,66.54
2022-08-22T13:14:00.477Z,66.46
2022-08-22T13:16:39.454Z,65.17
2022-08-22T13:19:23.985Z,64.46
2022-08-22T13:22:01.486Z,64.86
2022-08-22T13:24:41.831Z,63.74
2022-08-22T13:27:29.894Z,61.58
2022-08-22T13:30:04.110Z,61.60
2022-08-22T13:32:44.477Z,61.30
2022-08-22T13:35:24.417Z,61.83
2022-08-22T13:37:59.822Z,62.36
2022-08-22T13:40:33.697Z,62.39
2022-08-22T13:43:09.622Z,62.37
2022-08-22T13:45:43.176Z,62.34
2022-08-22T13:48:16.746Z,62.46
2022-08-22T13:51:08.145Z,62.27
2022-08-22T13:53:49.857Z,62.08
2022-08-22T13:56:43.550Z,61.71
2022-08-22T13:59:49.462Z,62.15
2022-08-22T14:02:30.899Z,61.68
2022-08-22T14:05:09.675Z,61.29
2022-08-22T14:07:53.025Z,61.01
2022-08-22T14:10:27.877Z,60.74
2022-08-22T14:13:28.106Z,61.18
2022-08-22T14:16:04.752Z,62.24
2022-08-22T14:18:45.506Z,62.29
2022-08-22T14:21:40.842Z,60.85
2022-08-22T14:24:25.497Z,61.47
2022-08-22T14:27:05.716Z,60.50
2022-08-22T14:29:45.763Z,60.98
2022-08-22T14:32:38.069Z,60.06
2022-08-22T14:35:25.455Z,59.92
2022-08-22T14:38:27.223Z,60.61
2022-08-22T14:41:05.567Z,60.64
2022-08-22T14:43:51.691Z,60.87
2022-08-22T14:46:31.739Z,61.06
2022-08-22T14:49:28.938Z,61.17
2022-08-22T14:52:19.459Z,60.70
2022-08-22T14:55:08.031Z,60.99
2022-08-22T14:57:46.653Z,61.59
2022-08-22T15:00:29.879Z,60.75
2022-08-22T15:03:22.240Z,61.16
2022-08-22T15:05:56.602Z,61.19
2022-08-22T15:08:33.911Z,61.21
2022-08-22T15:11:22.337Z,61.10
2022-08-22T15:14:00.098Z,61.14
2022-08-22T15:16:38.081Z,60.46
2022-08-22T15:19:27.943Z,60.48
2022-08-22T15:22:17.834Z,59.91
2022-08-22T15:24:56.623Z,60.51
2022-08-22T15:27:29.815Z,60.60
2022-08-22T15:30:05.064Z,60.51
2022-08-22T15:32:42.355Z,60.91
2022-08-22T15:35:14.164Z,61.73
2022-08-22T15:38:00.293Z,62.01
2022-08-22T15:40:42.477Z,62.19
2022-08-22T15:43:25.089Z,62.37
2022-08-22T15:46:25.980Z,62.57
2022-08-22T15:49:03.867Z,63.09
2022-08-22T15:51:40.882Z,63.31
2022-08-22T15:54:24.775Z,63.36
2022-08-22T15:57:18.727Z,63.61
2022-08-22T15:59:59.199Z,63.98
2022-08-22T16:02:35.736Z,64.58
2022-08-22T16:05:26.268Z,64.57
2022-08-22T16:08:06.307Z,64.81
2022-08-22T16:10:41.357Z,64.84
2022-08-22T16:13:34.184Z,64.72
2022-08-22T16:16:08.430Z,65.35
2022-08-22T16:19:14.170Z,65.21
2022-08-22T16:22:18.709Z,65.75
2022-08-22T16:25:02.886Z,65.67
2022-08-22T16:27:34.935Z,66.04
2022-08-22T16:30:12.183Z,66.05
2022-08-22T16:32:55.326Z,66.07
2022-08-22T16:36:00.555Z,66.39
2022-08-22T16:38:42.453Z,66.92
2022-08-22T16:41:31.778Z,66.71
2022-08-22T16:44:41.509Z,66.96
2022-08-22T16:47:16.528Z,67.17
2022-08-22T16:50:07.069Z,67.25
2022-08-22T16:53:05.717Z,67.17
2022-08-22T16:56:05.742Z,67.59
2022-08-22T16:58:59.230Z,67.68
2022-08-22T17:01:51.870Z,68.85
2022-08-22T17:04:34.567Z,69.33
2022-08-22T17:07:19.617Z,69.33
2022-08-22T17:10:20.461Z,69.28
2022-08-22T17:13:08.218Z,69.36
2022-08-22T17:15:57.711Z,69.45
2022-08-22T17:18:47.137Z,70.32
2022-08-22T17:21:26.124Z,70.71
2022-08-22T17:24:06.999Z,70.95
2022-08-22T17:26:55.375Z,70.99
2022-08-22T17:29:41.292Z,71.14
2022-08-22T17:32:22.982Z,71.63
2022-08-22T17:35:02.945Z,71.82
2022-08-22T17:37:46.554Z,71.92
2022-08-22T17:40:32.116Z,72.44
2022-08-22T17:43:16.756Z,72.62
2022-08-22T17:46:06.365Z,72.88
2022-08-22T17:48:52.814Z,72.88
2022-08-22T17:51:31.979Z,73.01
2022-08-22T17:54:15.324Z,73.36
2022-08-22T17:56:54.004Z,73.44
2022-08-22T17:59:46.329Z,73.86
2022-08-22T18:02:23.512Z,73.94
2022-08-22T18:05:06.255Z,74.19
2022-08-22T18:07:59.208Z,74.28
2022-08-22T18:10:41.054Z,74.26
2022-08-22T18:13:16.073Z,74.42
2022-08-22T18:15:54.224Z,74.43
2022-08-22T18:18:32.235Z,74.42
2022-08-22T18:21:10.666Z,74.77
2022-08-22T18:23:46.203Z,74.90
2022-08-22T18:26:30.083Z,75.13
2022-08-22T18:29:09.521Z,75.08
2022-08-22T18:31:50.284Z,74.89
2022-08-22T18:34:30.615Z,74.98
2022-08-22T18:37:08.327Z,74.96
2022-08-22T18:39:48.144Z,75.12
2022-08-22T18:42:29.455Z,75.45
2022-08-22T18:45:00.576Z,75.51
2022-08-22T18:47:35.543Z,75.77
2022-08-22T18:50:33.815Z,75.86
2022-08-22T18:53:13.672Z,75.80
2022-08-22T18:55:54.727Z,75.85
2022-08-22T18:58:51.364Z,76.07
2022-08-22T19:01:50.896Z,76.11
2022-08-22T19:04:40.009Z,76.27
2022-08-22T19:07:34.453Z,76.27
2022-08-22T19:10:38.681Z,76.27
2022-08-22T19:13:34.168Z,76.57
2022-08-22T19:16:22.301Z,76.52
2022-08-22T19:19:00.690Z,76.70
2022-08-22T19:21:51.521Z,76.70
2022-08-22T19:24:58.070Z,76.95
2022-08-22T19:27:32.362Z,77.09
2022-08-22T19:30:07.144Z,77.25
2022-08-22T19:33:03.472Z,77.36
2022-08-22T19:35:47.335Z,77.31
2022-08-22T19:38:55.667Z,77.54
2022-08-22T19:41:50.841Z,77.74
2022-08-22T19:44:42.218Z,77.95
2022-08-22T19:47:35.071Z,78.13
2022-08-22T19:50:13.181Z,78.20
2022-08-22T19:52:58.872Z,77.99
2022-08-22T19:55:45.054Z,78.12
2022-08-22T19:58:32.604Z,78.14
2022-08-22T20:01:41.160Z,78.31
2022-08-22T20:04:28.213Z,78.43
2022-08-22T20:07:14.344Z,78.43
2022-08-22T20:10:05.597Z,78.58
2022-08-22T20:12:45.402Z,78.54
2022-08-22T20:15:23.228Z,78.63
2022-08-22T20:21:02.551Z,78.74
2022-08-22T20:23:34.323Z,78.90
2022-08-22T20:26:07.819Z,78.87
2022-08-22T20:28:49.851Z,79.23
2022-08-22T20:31:27.039Z,79.44
2022-08-22T20:34:03.247Z,79.28
2022-08-22T20:36:34.579Z,79.61
2022-08-22T20:39:11.095Z,79.53
2022-08-22T20:41:42.547Z,79.79
2022-08-22T20:44:19.915Z,79.61
2022-08-22T20:46:57.642Z,79.80
2022-08-22T20:49:32.498Z,80.00
2022-08-22T20:52:06.266Z,80.24
2022-08-22T20:54:40.497Z,80.15
2022-08-22T20:57:17.124Z,80.49
2022-08-22T20:59:55.859Z,80.57
2022-08-22T21:02:31.535Z,80.55
2022-08-22T21:05:06.772Z,80.49
2022-08-22T21:07:40.562Z,80.63
2022-08-22T21:10:37.857Z,80.53
2022-08-22T21:13:14.223Z,80.60
2022-08-22T21:15:49.069Z,80.79
2022-08-22T21:18:32.003Z,80.67
2022-08-22T21:21:17.558Z,80.92
2022-08-22T21:23:52.594Z,80.71
2022-08-22T21:26:30.373Z,80.99
2022-08-22T21:29:05.828Z,80.86
2022-08-22T21:31:43.971Z,80.86
2022-08-22T21:34:18.368Z,80.99
2022-08-22T21:36:52.914Z,81.25
2022-08-22T21:39:26.688Z,81.23
2022-08-22T21:42:12.955Z,81.43
2022-08-22T21:44:55.378Z,81.51
2022-08-22T21:47:32.727Z,81.36
2022-08-22T21:50:08.313Z,81.58
2022-08-22T21:52:40.953Z,81.46
2022-08-22T21:55:26.536Z,81.25
2022-08-22T21:58:13.619Z,81.18
2022-08-22T22:01:25.312Z,81.28
2022-08-22T22:04:00.093Z,81.17
2022-08-22T22:06:31.392Z,81.23
2022-08-22T22:09:02.717Z,81.36
2022-08-22T22:11:33.893Z,81.52
2022-08-22T22:14:04.841Z,81.66
2022-08-22T22:16:36.160Z,81.67
2022-08-22T22:19:10.128Z,81.94
2022-08-22T22:21:41.805Z,81.98
2022-08-22T22:24:12.661Z,82.02
2022-08-22T22:26:43.584Z,82.04
2022-08-22T22:29:14.731Z,82.11
2022-08-22T22:31:45.579Z,82.22
2022-08-22T22:34:16.616Z,82.04
2022-08-22T22:36:48.059Z,82.05
2022-08-22T22:39:18.874Z,81.98
2022-08-22T22:41:50.137Z,81.85
2022-08-22T22:44:21.642Z,81.94
2022-08-22T22:46:57.915Z,81.71
2022-08-22T22:49:28.997Z,81.72
2022-08-22T22:52:00.125Z,81.81
2022-08-22T22:54:31.097Z,82.04
2022-08-22T22:57:05.230Z,81.88
2022-08-22T22:59:43.565Z,81.96
2022-08-22T23:02:18.918Z,81.98
2022-08-22T23:04:55.154Z,81.92
2022-08-22T23:07:28.263Z,81.98
2022-08-22T23:09:59.223Z,81.94
2022-08-22T23:12:32.265Z,81.63
2022-08-22T23:15:03.718Z,81.48
2022-08-22T23:17:35.180Z,81.42
2022-08-22T23:20:06.991Z,81.58
2022-08-22T23:22:38.205Z,81.76
2022-08-22T23:25:11.905Z,81.64
2022-08-22T23:27:42.957Z,81.61
2022-08-22T23:30:15.226Z,81.60
2022-08-22T23:32:46.257Z,81.43
2022-08-22T23:35:17.357Z,81.43
2022-08-22T23:37:48.353Z,81.68
2022-08-22T23:40:19.490Z,81.49
2022-08-22T23:42:50.568Z,81.45
2022-08-22T23:45:21.624Z,81.40
2022-08-22T23:47:53.186Z,81.49
2022-08-22T23:50:24.264Z,81.57
2022-08-22T23:52:55.290Z,81.60
2022-08-22T23:55:26.745Z,81.57
2022-08-22T23:57:58.127Z,81.31
